This is the latest recevied weather packets stored in our database for station/object OM2RC-6. If no packets are shown the sender has not sent any weather packets the latest 10 day(s).
| Time | Temp. | Humidity | Pressure | Rain* | Wind** | Luminosity | Snow |
|---|---|---|---|---|---|---|---|
| 1777972177 | 20° C | 59% | 1010.3 hPa | - | - | - | - |
| 1777971876 | 20° C | 59% | 1010.3 hPa | - | - | - | - |
| 1777971576 | 19.44° C | 60% | 1010.5 hPa | - | - | - | - |
| 1777970673 | 18.89° C | 64% | 1010.9 hPa | - | - | - | - |
| 1777970372 | 18.89° C | 63% | 1010.9 hPa | - | - | - | - |
| 1777969769 | 19.44° C | 62% | 1011 hPa | - | - | - | - |
| 1777969467 | 20° C | 60% | 1011.2 hPa | - | - | - | - |
| 1777969166 | 19.44° C | 62% | 1010.9 hPa | - | - | - | - |
| 1777968865 | 18.89° C | 64% | 1011 hPa | - | - | - | - |
| 1777968564 | 18.89° C | 64% | 1010.9 hPa | - | - | - | - |
| 1777968263 | 18.89° C | 64% | 1010.9 hPa | - | - | - | - |
| 1777967661 | 17.78° C | 66% | 1010.8 hPa | - | - | - | - |
| 1777967359 | 17.78° C | 69% | 1011 hPa | - | - | - | - |
| 1777967058 | 17.22° C | 68% | 1010.9 hPa | - | - | - | - |
| 1777966757 | 17.78° C | 68% | 1011 hPa | - | - | - | - |
| 1777966455 | 17.22° C | 68% | 1011 hPa | - | - | - | - |
| 1777966154 | 17.78° C | 68% | 1011.1 hPa | - | - | - | - |
| 1777965853 | 17.22° C | 69% | 1011.2 hPa | - | - | - | - |
| 1777965551 | 17.22° C | 69% | 1011.2 hPa | - | - | - | - |
| 1777964648 | 15.56° C | 74% | 1011.3 hPa | - | - | - | - |
| 1777964347 | 16.11° C | 73% | 1011.3 hPa | - | - | - | - |
| 1777964046 | 16.11° C | 74% | 1011.2 hPa | - | - | - | - |
| 1777963746 | 16.11° C | 74% | 1011.3 hPa | - | - | - | - |
| 1777963444 | 15.56° C | 74% | 1011.2 hPa | - | - | - | - |
| 1777963142 | 15.56° C | 74% | 1011.2 hPa | - | - | - | - |
* Rain since midnight (hover to see other rain measurements)
** Current wind speed in m/s (hover to see current wind gust speed)